<?xml version="1.0" encoding="UTF-8" standalone="no" ?>
<gpx xmlns="http://www.topografix.com/GPX/1/1" xmlns:xsi="http://www.w3.org/2001/XMLSchema-instance" xsi:schemaLocation="http://www.topografix.com/GPX/1/1 http://www.topografix.com/GPX/1/1/gpx.xsd" version="1.1" creator="VisuGPX - https://www.visugpx.com">
  <metadata>
    <name>2024-11-25-46-saint Daunés</name>
    <desc><![CDATA[Randonnée de 9 km pour environ 180m de dénivelé positif. Deux côtes seront à franchir sur ce parcours en parcourant les sentiers en sous bois et vous offriront de beaux paysages et des vues sur la vallée]]></desc>
  </metadata>
  <trk>
    <name><![CDATA[Patrimoine-7643597]]></name>
    <trkseg>
      <trkpt lat="44.35619" lon="1.22953">
        <ele>164</ele>
        <time>2023-11-12T17:30:57Z</time>
      </trkpt>
      <trkpt lat="44.35619" lon="1.22953">
        <ele>164</ele>
        <time>2023-11-12T17:30:57Z</time>
      </trkpt>
      <trkpt lat="44.35618" lon="1.2295">
        <ele>164</ele>
        <time>2023-11-12T17:31:00Z</time>
      </trkpt>
      <trkpt lat="44.35618" lon="1.22966">
        <ele>164</ele>
        <time>2023-11-12T17:31:15Z</time>
      </trkpt>
      <trkpt lat="44.35608" lon="1.22975">
        <ele>164</ele>
        <time>2023-11-12T17:31:31Z</time>
      </trkpt>
      <trkpt lat="44.35597" lon="1.22983">
        <ele>164</ele>
        <time>2023-11-12T17:31:48Z</time>
      </trkpt>
      <trkpt lat="44.35581" lon="1.22973">
        <ele>164</ele>
        <time>2023-11-12T17:32:11Z</time>
      </trkpt>
      <trkpt lat="44.35564" lon="1.22964">
        <ele>164</ele>
        <time>2023-11-12T17:32:35Z</time>
      </trkpt>
      <trkpt lat="44.35554" lon="1.2296">
        <ele>164</ele>
        <time>2023-11-12T17:32:49Z</time>
      </trkpt>
      <trkpt lat="44.35534" lon="1.22955">
        <ele>165</ele>
        <time>2023-11-12T17:33:16Z</time>
      </trkpt>
      <trkpt lat="44.35531" lon="1.22955">
        <ele>165</ele>
        <time>2023-11-12T17:33:20Z</time>
      </trkpt>
      <trkpt lat="44.35535" lon="1.22953">
        <ele>165</ele>
        <time>2023-11-12T17:33:26Z</time>
      </trkpt>
      <trkpt lat="44.35531" lon="1.22956">
        <ele>165</ele>
        <time>2023-11-12T17:33:32Z</time>
      </trkpt>
      <trkpt lat="44.35531" lon="1.22955">
        <ele>165</ele>
        <time>2023-11-12T17:33:33Z</time>
      </trkpt>
      <trkpt lat="44.35512" lon="1.22963">
        <ele>165</ele>
        <time>2023-11-12T17:34:00Z</time>
      </trkpt>
      <trkpt lat="44.35499" lon="1.22964">
        <ele>165</ele>
        <time>2023-11-12T17:34:17Z</time>
      </trkpt>
      <trkpt lat="44.35509" lon="1.22985">
        <ele>165</ele>
        <time>2023-11-12T17:34:41Z</time>
      </trkpt>
      <trkpt lat="44.35524" lon="1.22996">
        <ele>165</ele>
        <time>2023-11-12T17:35:04Z</time>
      </trkpt>
      <trkpt lat="44.35535" lon="1.23018">
        <ele>165</ele>
        <time>2023-11-12T17:35:29Z</time>
      </trkpt>
      <trkpt lat="44.35548" lon="1.23053">
        <ele>164</ele>
        <time>2023-11-12T17:36:07Z</time>
      </trkpt>
      <trkpt lat="44.35548" lon="1.23062">
        <ele>164</ele>
        <time>2023-11-12T17:36:16Z</time>
      </trkpt>
      <trkpt lat="44.35542" lon="1.23098">
        <ele>164</ele>
        <time>2023-11-12T17:36:51Z</time>
      </trkpt>
      <trkpt lat="44.35541" lon="1.2312">
        <ele>164</ele>
        <time>2023-11-12T17:37:12Z</time>
      </trkpt>
      <trkpt lat="44.35541" lon="1.23141">
        <ele>164</ele>
        <time>2023-11-12T17:37:32Z</time>
      </trkpt>
      <trkpt lat="44.35545" lon="1.23153">
        <ele>164</ele>
        <time>2023-11-12T17:37:44Z</time>
      </trkpt>
      <trkpt lat="44.35552" lon="1.2318">
        <ele>164</ele>
        <time>2023-11-12T17:38:12Z</time>
      </trkpt>
      <trkpt lat="44.3556" lon="1.23201">
        <ele>165</ele>
        <time>2023-11-12T17:38:35Z</time>
      </trkpt>
      <trkpt lat="44.35564" lon="1.23229">
        <ele>165</ele>
        <time>2023-11-12T17:39:02Z</time>
      </trkpt>
      <trkpt lat="44.35568" lon="1.23245">
        <ele>165</ele>
        <time>2023-11-12T17:39:18Z</time>
      </trkpt>
      <trkpt lat="44.35583" lon="1.23284">
        <ele>165</ele>
        <time>2023-11-12T17:40:00Z</time>
      </trkpt>
      <trkpt lat="44.35589" lon="1.23298">
        <ele>166</ele>
        <time>2023-11-12T17:40:16Z</time>
      </trkpt>
      <trkpt lat="44.35595" lon="1.2333">
        <ele>166</ele>
        <time>2023-11-12T17:40:47Z</time>
      </trkpt>
      <trkpt lat="44.35599" lon="1.23364">
        <ele>166</ele>
        <time>2023-11-12T17:41:20Z</time>
      </trkpt>
      <trkpt lat="44.356" lon="1.23392">
        <ele>166</ele>
        <time>2023-11-12T17:41:47Z</time>
      </trkpt>
      <trkpt lat="44.35602" lon="1.23412">
        <ele>166</ele>
        <time>2023-11-12T17:42:06Z</time>
      </trkpt>
      <trkpt lat="44.35604" lon="1.23435">
        <ele>166</ele>
        <time>2023-11-12T17:42:28Z</time>
      </trkpt>
      <trkpt lat="44.3561" lon="1.23453">
        <ele>165</ele>
        <time>2023-11-12T17:42:47Z</time>
      </trkpt>
      <trkpt lat="44.35627" lon="1.23506">
        <ele>165</ele>
        <time>2023-11-12T17:43:43Z</time>
      </trkpt>
      <trkpt lat="44.3563" lon="1.2353">
        <ele>165</ele>
        <time>2023-11-12T17:44:06Z</time>
      </trkpt>
      <trkpt lat="44.35629" lon="1.23545">
        <ele>165</ele>
        <time>2023-11-12T17:44:20Z</time>
      </trkpt>
      <trkpt lat="44.3563" lon="1.23554">
        <ele>166</ele>
        <time>2023-11-12T17:44:29Z</time>
      </trkpt>
      <trkpt lat="44.35628" lon="1.23579">
        <ele>166</ele>
        <time>2023-11-12T17:44:53Z</time>
      </trkpt>
      <trkpt lat="44.35628" lon="1.23617">
        <ele>166</ele>
        <time>2023-11-12T17:45:29Z</time>
      </trkpt>
      <trkpt lat="44.35633" lon="1.23645">
        <ele>166</ele>
        <time>2023-11-12T17:45:57Z</time>
      </trkpt>
      <trkpt lat="44.35633" lon="1.23721">
        <ele>166</ele>
        <time>2023-11-12T17:47:09Z</time>
      </trkpt>
      <trkpt lat="44.35632" lon="1.23752">
        <ele>166</ele>
        <time>2023-11-12T17:47:39Z</time>
      </trkpt>
      <trkpt lat="44.35631" lon="1.23783">
        <ele>167</ele>
        <time>2023-11-12T17:48:09Z</time>
      </trkpt>
      <trkpt lat="44.35632" lon="1.23792">
        <ele>167</ele>
        <time>2023-11-12T17:48:17Z</time>
      </trkpt>
      <trkpt lat="44.35636" lon="1.23818">
        <ele>168</ele>
        <time>2023-11-12T17:48:43Z</time>
      </trkpt>
      <trkpt lat="44.35636" lon="1.23832">
        <ele>168</ele>
        <time>2023-11-12T17:48:56Z</time>
      </trkpt>
      <trkpt lat="44.35631" lon="1.23863">
        <ele>168</ele>
        <time>2023-11-12T17:49:26Z</time>
      </trkpt>
      <trkpt lat="44.35636" lon="1.23887">
        <ele>168</ele>
        <time>2023-11-12T17:49:50Z</time>
      </trkpt>
      <trkpt lat="44.35647" lon="1.23906">
        <ele>168</ele>
        <time>2023-11-12T17:50:14Z</time>
      </trkpt>
      <trkpt lat="44.35661" lon="1.23918">
        <ele>167</ele>
        <time>2023-11-12T17:50:35Z</time>
      </trkpt>
      <trkpt lat="44.35677" lon="1.23928">
        <ele>167</ele>
        <time>2023-11-12T17:50:59Z</time>
      </trkpt>
      <trkpt lat="44.35683" lon="1.23931">
        <ele>167</ele>
        <time>2023-11-12T17:51:07Z</time>
      </trkpt>
      <trkpt lat="44.35704" lon="1.23948">
        <ele>167</ele>
        <time>2023-11-12T17:51:40Z</time>
      </trkpt>
      <trkpt lat="44.35719" lon="1.23963">
        <ele>167</ele>
        <time>2023-11-12T17:52:04Z</time>
      </trkpt>
      <trkpt lat="44.35737" lon="1.23969">
        <ele>167</ele>
        <time>2023-11-12T17:52:29Z</time>
      </trkpt>
      <trkpt lat="44.35751" lon="1.23966">
        <ele>167</ele>
        <time>2023-11-12T17:52:48Z</time>
      </trkpt>
      <trkpt lat="44.35754" lon="1.23966">
        <ele>167</ele>
        <time>2023-11-12T17:52:52Z</time>
      </trkpt>
      <trkpt lat="44.35765" lon="1.23975">
        <ele>167</ele>
        <time>2023-11-12T17:53:09Z</time>
      </trkpt>
      <trkpt lat="44.35768" lon="1.23989">
        <ele>167</ele>
        <time>2023-11-12T17:53:23Z</time>
      </trkpt>
      <trkpt lat="44.35775" lon="1.24011">
        <ele>168</ele>
        <time>2023-11-12T17:53:46Z</time>
      </trkpt>
      <trkpt lat="44.35785" lon="1.24036">
        <ele>168</ele>
        <time>2023-11-12T17:54:13Z</time>
      </trkpt>
      <trkpt lat="44.35793" lon="1.24061">
        <ele>168</ele>
        <time>2023-11-12T17:54:39Z</time>
      </trkpt>
      <trkpt lat="44.35793" lon="1.24063">
        <ele>168</ele>
        <time>2023-11-12T17:54:41Z</time>
      </trkpt>
      <trkpt lat="44.35807" lon="1.24082">
        <ele>167</ele>
        <time>2023-11-12T17:55:07Z</time>
      </trkpt>
      <trkpt lat="44.35821" lon="1.24099">
        <ele>167</ele>
        <time>2023-11-12T17:55:32Z</time>
      </trkpt>
      <trkpt lat="44.35835" lon="1.24121">
        <ele>168</ele>
        <time>2023-11-12T17:56:00Z</time>
      </trkpt>
      <trkpt lat="44.35845" lon="1.24147">
        <ele>169</ele>
        <time>2023-11-12T17:56:28Z</time>
      </trkpt>
      <trkpt lat="44.3585" lon="1.24165">
        <ele>169</ele>
        <time>2023-11-12T17:56:47Z</time>
      </trkpt>
      <trkpt lat="44.35856" lon="1.24177">
        <ele>170</ele>
        <time>2023-11-12T17:57:01Z</time>
      </trkpt>
      <trkpt lat="44.35863" lon="1.24197">
        <ele>170</ele>
        <time>2023-11-12T17:57:22Z</time>
      </trkpt>
      <trkpt lat="44.35881" lon="1.2421">
        <ele>170</ele>
        <time>2023-11-12T17:57:49Z</time>
      </trkpt>
      <trkpt lat="44.35901" lon="1.24216">
        <ele>170</ele>
        <time>2023-11-12T17:58:16Z</time>
      </trkpt>
      <trkpt lat="44.35917" lon="1.24237">
        <ele>170</ele>
        <time>2023-11-12T17:58:46Z</time>
      </trkpt>
      <trkpt lat="44.3593" lon="1.24261">
        <ele>170</ele>
        <time>2023-11-12T17:59:14Z</time>
      </trkpt>
      <trkpt lat="44.35938" lon="1.24273">
        <ele>170</ele>
        <time>2023-11-12T17:59:30Z</time>
      </trkpt>
      <trkpt lat="44.35945" lon="1.24276">
        <ele>170</ele>
        <time>2023-11-12T17:59:40Z</time>
      </trkpt>
      <trkpt lat="44.35957" lon="1.24278">
        <ele>170</ele>
        <time>2023-11-12T17:59:56Z</time>
      </trkpt>
      <trkpt lat="44.35998" lon="1.2429">
        <ele>170</ele>
        <time>2023-11-12T18:00:52Z</time>
      </trkpt>
      <trkpt lat="44.36013" lon="1.24306">
        <ele>171</ele>
        <time>2023-11-12T18:01:17Z</time>
      </trkpt>
      <trkpt lat="44.36018" lon="1.24335">
        <ele>171</ele>
        <time>2023-11-12T18:01:45Z</time>
      </trkpt>
      <trkpt lat="44.36021" lon="1.24353">
        <ele>171</ele>
        <time>2023-11-12T18:02:03Z</time>
      </trkpt>
      <trkpt lat="44.36025" lon="1.24382">
        <ele>171</ele>
        <time>2023-11-12T18:02:31Z</time>
      </trkpt>
      <trkpt lat="44.3603" lon="1.24409">
        <ele>171</ele>
        <time>2023-11-12T18:02:58Z</time>
      </trkpt>
      <trkpt lat="44.36034" lon="1.24437">
        <ele>171</ele>
        <time>2023-11-12T18:03:25Z</time>
      </trkpt>
      <trkpt lat="44.36039" lon="1.24464">
        <ele>171</ele>
        <time>2023-11-12T18:03:52Z</time>
      </trkpt>
      <trkpt lat="44.36041" lon="1.24475">
        <ele>171</ele>
        <time>2023-11-12T18:04:02Z</time>
      </trkpt>
      <trkpt lat="44.36045" lon="1.24494">
        <ele>171</ele>
        <time>2023-11-12T18:04:21Z</time>
      </trkpt>
      <trkpt lat="44.36048" lon="1.24538">
        <ele>172</ele>
        <time>2023-11-12T18:05:04Z</time>
      </trkpt>
      <trkpt lat="44.36051" lon="1.24593">
        <ele>172</ele>
        <time>2023-11-12T18:05:56Z</time>
      </trkpt>
      <trkpt lat="44.3605" lon="1.24604">
        <ele>172</ele>
        <time>2023-11-12T18:06:07Z</time>
      </trkpt>
      <trkpt lat="44.3605" lon="1.24642">
        <ele>173</ele>
        <time>2023-11-12T18:06:43Z</time>
      </trkpt>
      <trkpt lat="44.36047" lon="1.24667">
        <ele>173</ele>
        <time>2023-11-12T18:07:07Z</time>
      </trkpt>
      <trkpt lat="44.36037" lon="1.24688">
        <ele>173</ele>
        <time>2023-11-12T18:07:31Z</time>
      </trkpt>
      <trkpt lat="44.35998" lon="1.24733">
        <ele>175</ele>
        <time>2023-11-12T18:08:39Z</time>
      </trkpt>
      <trkpt lat="44.35928" lon="1.24833">
        <ele>182</ele>
        <time>2023-11-12T18:10:52Z</time>
      </trkpt>
      <trkpt lat="44.35889" lon="1.2487">
        <ele>190</ele>
        <time>2023-11-12T18:11:55Z</time>
      </trkpt>
      <trkpt lat="44.35881" lon="1.24903">
        <ele>191</ele>
        <time>2023-11-12T18:12:28Z</time>
      </trkpt>
      <trkpt lat="44.35868" lon="1.24922">
        <ele>192</ele>
        <time>2023-11-12T18:12:53Z</time>
      </trkpt>
      <trkpt lat="44.35866" lon="1.24926">
        <ele>192</ele>
        <time>2023-11-12T18:12:58Z</time>
      </trkpt>
      <trkpt lat="44.35866" lon="1.24926">
        <ele>192</ele>
        <time>2023-11-12T18:12:58Z</time>
      </trkpt>
      <trkpt lat="44.35866" lon="1.24929">
        <ele>192</ele>
        <time>2023-11-12T18:13:01Z</time>
      </trkpt>
      <trkpt lat="44.35859" lon="1.24948">
        <ele>191</ele>
        <time>2023-11-12T18:13:21Z</time>
      </trkpt>
      <trkpt lat="44.35856" lon="1.24956">
        <ele>191</ele>
        <time>2023-11-12T18:13:30Z</time>
      </trkpt>
      <trkpt lat="44.35845" lon="1.2498">
        <ele>190</ele>
        <time>2023-11-12T18:13:57Z</time>
      </trkpt>
      <trkpt lat="44.35836" lon="1.25002">
        <ele>188</ele>
        <time>2023-11-12T18:14:21Z</time>
      </trkpt>
      <trkpt lat="44.35821" lon="1.25025">
        <ele>188</ele>
        <time>2023-11-12T18:14:51Z</time>
      </trkpt>
      <trkpt lat="44.35812" lon="1.25043">
        <ele>187</ele>
        <time>2023-11-12T18:15:12Z</time>
      </trkpt>
      <trkpt lat="44.35799" lon="1.25049">
        <ele>188</ele>
        <time>2023-11-12T18:15:30Z</time>
      </trkpt>
      <trkpt lat="44.35797" lon="1.2505">
        <ele>188</ele>
        <time>2023-11-12T18:15:33Z</time>
      </trkpt>
      <trkpt lat="44.3579" lon="1.25048">
        <ele>188</ele>
        <time>2023-11-12T18:15:43Z</time>
      </trkpt>
      <trkpt lat="44.35782" lon="1.25053">
        <ele>188</ele>
        <time>2023-11-12T18:15:54Z</time>
      </trkpt>
      <trkpt lat="44.35769" lon="1.25062">
        <ele>188</ele>
        <time>2023-11-12T18:16:14Z</time>
      </trkpt>
      <trkpt lat="44.35764" lon="1.25066">
        <ele>189</ele>
        <time>2023-11-12T18:16:21Z</time>
      </trkpt>
      <trkpt lat="44.3577" lon="1.25125">
        <ele>190</ele>
        <time>2023-11-12T18:17:18Z</time>
      </trkpt>
      <trkpt lat="44.3577" lon="1.25123">
        <ele>190</ele>
        <time>2023-11-12T18:17:20Z</time>
      </trkpt>
      <trkpt lat="44.3577" lon="1.25123">
        <ele>190</ele>
        <time>2023-11-12T18:17:20Z</time>
      </trkpt>
      <trkpt lat="44.35775" lon="1.25183">
        <ele>191</ele>
        <time>2023-11-12T18:18:18Z</time>
      </trkpt>
      <trkpt lat="44.35763" lon="1.25186">
        <ele>192</ele>
        <time>2023-11-12T18:18:34Z</time>
      </trkpt>
      <trkpt lat="44.35749" lon="1.25188">
        <ele>193</ele>
        <time>2023-11-12T18:18:53Z</time>
      </trkpt>
      <trkpt lat="44.35729" lon="1.25199">
        <ele>195</ele>
        <time>2023-11-12T18:19:22Z</time>
      </trkpt>
      <trkpt lat="44.35712" lon="1.25214">
        <ele>197</ele>
        <time>2023-11-12T18:19:48Z</time>
      </trkpt>
      <trkpt lat="44.35697" lon="1.25228">
        <ele>199</ele>
        <time>2023-11-12T18:20:12Z</time>
      </trkpt>
      <trkpt lat="44.35677" lon="1.25239">
        <ele>202</ele>
        <time>2023-11-12T18:20:41Z</time>
      </trkpt>
      <trkpt lat="44.35664" lon="1.25254">
        <ele>204</ele>
        <time>2023-11-12T18:21:04Z</time>
      </trkpt>
      <trkpt lat="44.35643" lon="1.25267">
        <ele>204</ele>
        <time>2023-11-12T18:21:34Z</time>
      </trkpt>
      <trkpt lat="44.35631" lon="1.25278">
        <ele>204</ele>
        <time>2023-11-12T18:21:53Z</time>
      </trkpt>
      <trkpt lat="44.35611" lon="1.25292">
        <ele>205</ele>
        <time>2023-11-12T18:22:23Z</time>
      </trkpt>
      <trkpt lat="44.35605" lon="1.25295">
        <ele>205</ele>
        <time>2023-11-12T18:22:32Z</time>
      </trkpt>
      <trkpt lat="44.35575" lon="1.25314">
        <ele>208</ele>
        <time>2023-11-12T18:23:16Z</time>
      </trkpt>
      <trkpt lat="44.35558" lon="1.25321">
        <ele>210</ele>
        <time>2023-11-12T18:23:39Z</time>
      </trkpt>
      <trkpt lat="44.35549" lon="1.25326">
        <ele>211</ele>
        <time>2023-11-12T18:23:52Z</time>
      </trkpt>
      <trkpt lat="44.35533" lon="1.25332">
        <ele>213</ele>
        <time>2023-11-12T18:24:14Z</time>
      </trkpt>
      <trkpt lat="44.35522" lon="1.25337">
        <ele>214</ele>
        <time>2023-11-12T18:24:30Z</time>
      </trkpt>
      <trkpt lat="44.35511" lon="1.25342">
        <ele>215</ele>
        <time>2023-11-12T18:24:45Z</time>
      </trkpt>
      <trkpt lat="44.35506" lon="1.25344">
        <ele>216</ele>
        <time>2023-11-12T18:24:52Z</time>
      </trkpt>
      <trkpt lat="44.35485" lon="1.25351">
        <ele>218</ele>
        <time>2023-11-12T18:25:21Z</time>
      </trkpt>
      <trkpt lat="44.35465" lon="1.25358">
        <ele>219</ele>
        <time>2023-11-12T18:25:48Z</time>
      </trkpt>
      <trkpt lat="44.35449" lon="1.25365">
        <ele>221</ele>
        <time>2023-11-12T18:26:11Z</time>
      </trkpt>
      <trkpt lat="44.35432" lon="1.25375">
        <ele>224</ele>
        <time>2023-11-12T18:26:35Z</time>
      </trkpt>
      <trkpt lat="44.35399" lon="1.25391">
        <ele>229</ele>
        <time>2023-11-12T18:27:22Z</time>
      </trkpt>
      <trkpt lat="44.35383" lon="1.25397">
        <ele>231</ele>
        <time>2023-11-12T18:27:44Z</time>
      </trkpt>
      <trkpt lat="44.35366" lon="1.25407">
        <ele>234</ele>
        <time>2023-11-12T18:28:09Z</time>
      </trkpt>
      <trkpt lat="44.35364" lon="1.25408">
        <ele>235</ele>
        <time>2023-11-12T18:28:12Z</time>
      </trkpt>
      <trkpt lat="44.35332" lon="1.2542">
        <ele>239</ele>
        <time>2023-11-12T18:28:56Z</time>
      </trkpt>
      <trkpt lat="44.35318" lon="1.25427">
        <ele>241</ele>
        <time>2023-11-12T18:29:16Z</time>
      </trkpt>
      <trkpt lat="44.353" lon="1.25435">
        <ele>243</ele>
        <time>2023-11-12T18:29:41Z</time>
      </trkpt>
      <trkpt lat="44.35285" lon="1.2544">
        <ele>245</ele>
        <time>2023-11-12T18:30:01Z</time>
      </trkpt>
      <trkpt lat="44.35248" lon="1.25459">
        <ele>249</ele>
        <time>2023-11-12T18:30:54Z</time>
      </trkpt>
      <trkpt lat="44.35223" lon="1.25471">
        <ele>251</ele>
        <time>2023-11-12T18:31:29Z</time>
      </trkpt>
      <trkpt lat="44.35201" lon="1.25478">
        <ele>252</ele>
        <time>2023-11-12T18:31:59Z</time>
      </trkpt>
      <trkpt lat="44.35178" lon="1.2548">
        <ele>254</ele>
        <time>2023-11-12T18:32:30Z</time>
      </trkpt>
      <trkpt lat="44.35152" lon="1.25481">
        <ele>255</ele>
        <time>2023-11-12T18:33:05Z</time>
      </trkpt>
      <trkpt lat="44.35137" lon="1.2548">
        <ele>255</ele>
        <time>2023-11-12T18:33:25Z</time>
      </trkpt>
      <trkpt lat="44.35129" lon="1.25482">
        <ele>255</ele>
        <time>2023-11-12T18:33:36Z</time>
      </trkpt>
      <trkpt lat="44.35116" lon="1.25482">
        <ele>255</ele>
        <time>2023-11-12T18:33:53Z</time>
      </trkpt>
      <trkpt lat="44.35089" lon="1.25478">
        <ele>255</ele>
        <time>2023-11-12T18:34:29Z</time>
      </trkpt>
      <trkpt lat="44.35065" lon="1.25474">
        <ele>255</ele>
        <time>2023-11-12T18:35:02Z</time>
      </trkpt>
      <trkpt lat="44.35045" lon="1.25467">
        <ele>255</ele>
        <time>2023-11-12T18:35:29Z</time>
      </trkpt>
      <trkpt lat="44.35026" lon="1.25459">
        <ele>255</ele>
        <time>2023-11-12T18:35:56Z</time>
      </trkpt>
      <trkpt lat="44.35007" lon="1.25455">
        <ele>255</ele>
        <time>2023-11-12T18:36:21Z</time>
      </trkpt>
      <trkpt lat="44.34984" lon="1.25449">
        <ele>256</ele>
        <time>2023-11-12T18:36:52Z</time>
      </trkpt>
      <trkpt lat="44.34961" lon="1.25446">
        <ele>258</ele>
        <time>2023-11-12T18:37:23Z</time>
      </trkpt>
      <trkpt lat="44.34961" lon="1.25448">
        <ele>257</ele>
        <time>2023-11-12T18:37:25Z</time>
      </trkpt>
      <trkpt lat="44.34955" lon="1.25445">
        <ele>258</ele>
        <time>2023-11-12T18:37:34Z</time>
      </trkpt>
      <trkpt lat="44.34939" lon="1.25444">
        <ele>259</ele>
        <time>2023-11-12T18:37:55Z</time>
      </trkpt>
      <trkpt lat="44.3491" lon="1.25442">
        <ele>260</ele>
        <time>2023-11-12T18:38:34Z</time>
      </trkpt>
      <trkpt lat="44.34876" lon="1.25442">
        <ele>262</ele>
        <time>2023-11-12T18:39:19Z</time>
      </trkpt>
      <trkpt lat="44.34854" lon="1.25441">
        <ele>263</ele>
        <time>2023-11-12T18:39:49Z</time>
      </trkpt>
      <trkpt lat="44.34833" lon="1.25441">
        <ele>265</ele>
        <time>2023-11-12T18:40:17Z</time>
      </trkpt>
      <trkpt lat="44.34831" lon="1.25443">
        <ele>265</ele>
        <time>2023-11-12T18:40:20Z</time>
      </trkpt>
      <trkpt lat="44.34809" lon="1.25447">
        <ele>266</ele>
        <time>2023-11-12T18:40:50Z</time>
      </trkpt>
      <trkpt lat="44.34781" lon="1.25456">
        <ele>268</ele>
        <time>2023-11-12T18:41:28Z</time>
      </trkpt>
      <trkpt lat="44.34756" lon="1.25465">
        <ele>270</ele>
        <time>2023-11-12T18:42:02Z</time>
      </trkpt>
      <trkpt lat="44.34744" lon="1.25465">
        <ele>270</ele>
        <time>2023-11-12T18:42:18Z</time>
      </trkpt>
      <trkpt lat="44.34744" lon="1.25449">
        <ele>270</ele>
        <time>2023-11-12T18:42:34Z</time>
      </trkpt>
      <trkpt lat="44.3475" lon="1.25434">
        <ele>271</ele>
        <time>2023-11-12T18:42:50Z</time>
      </trkpt>
      <trkpt lat="44.34756" lon="1.25401">
        <ele>270</ele>
        <time>2023-11-12T18:43:22Z</time>
      </trkpt>
      <trkpt lat="44.34764" lon="1.25367">
        <ele>269</ele>
        <time>2023-11-12T18:43:57Z</time>
      </trkpt>
      <trkpt lat="44.34768" lon="1.2534">
        <ele>268</ele>
        <time>2023-11-12T18:44:23Z</time>
      </trkpt>
      <trkpt lat="44.34777" lon="1.25301">
        <ele>269</ele>
        <time>2023-11-12T18:45:02Z</time>
      </trkpt>
      <trkpt lat="44.34783" lon="1.25275">
        <ele>269</ele>
        <time>2023-11-12T18:45:28Z</time>
      </trkpt>
      <trkpt lat="44.3479" lon="1.25244">
        <ele>270</ele>
        <time>2023-11-12T18:45:59Z</time>
      </trkpt>
      <trkpt lat="44.34794" lon="1.25214">
        <ele>271</ele>
        <time>2023-11-12T18:46:28Z</time>
      </trkpt>
      <trkpt lat="44.34795" lon="1.25179">
        <ele>271</ele>
        <time>2023-11-12T18:47:02Z</time>
      </trkpt>
      <trkpt lat="44.34794" lon="1.25168">
        <ele>272</ele>
        <time>2023-11-12T18:47:12Z</time>
      </trkpt>
      <trkpt lat="44.34787" lon="1.25129">
        <ele>271</ele>
        <time>2023-11-12T18:47:51Z</time>
      </trkpt>
      <trkpt lat="44.34779" lon="1.25089">
        <ele>271</ele>
        <time>2023-11-12T18:48:30Z</time>
      </trkpt>
      <trkpt lat="44.34763" lon="1.25012">
        <ele>270</ele>
        <time>2023-11-12T18:49:47Z</time>
      </trkpt>
      <trkpt lat="44.34754" lon="1.24977">
        <ele>271</ele>
        <time>2023-11-12T18:50:22Z</time>
      </trkpt>
      <trkpt lat="44.34757" lon="1.24939">
        <ele>272</ele>
        <time>2023-11-12T18:50:59Z</time>
      </trkpt>
      <trkpt lat="44.34756" lon="1.24939">
        <ele>272</ele>
        <time>2023-11-12T18:51:00Z</time>
      </trkpt>
      <trkpt lat="44.34756" lon="1.24938">
        <ele>272</ele>
        <time>2023-11-12T18:51:01Z</time>
      </trkpt>
      <trkpt lat="44.34758" lon="1.24938">
        <ele>272</ele>
        <time>2023-11-12T18:51:04Z</time>
      </trkpt>
      <trkpt lat="44.34756" lon="1.24938">
        <ele>272</ele>
        <time>2023-11-12T18:51:06Z</time>
      </trkpt>
      <trkpt lat="44.34764" lon="1.24899">
        <ele>272</ele>
        <time>2023-11-12T18:51:45Z</time>
      </trkpt>
      <trkpt lat="44.34768" lon="1.24888">
        <ele>272</ele>
        <time>2023-11-12T18:51:57Z</time>
      </trkpt>
      <trkpt lat="44.34775" lon="1.24874">
        <ele>272</ele>
        <time>2023-11-12T18:52:13Z</time>
      </trkpt>
      <trkpt lat="44.34784" lon="1.24852">
        <ele>272</ele>
        <time>2023-11-12T18:52:37Z</time>
      </trkpt>
      <trkpt lat="44.34789" lon="1.24842">
        <ele>272</ele>
        <time>2023-11-12T18:52:49Z</time>
      </trkpt>
      <trkpt lat="44.34802" lon="1.2482">
        <ele>271</ele>
        <time>2023-11-12T18:53:16Z</time>
      </trkpt>
      <trkpt lat="44.34806" lon="1.24817">
        <ele>271</ele>
        <time>2023-11-12T18:53:22Z</time>
      </trkpt>
      <trkpt lat="44.34806" lon="1.24817">
        <ele>271</ele>
        <time>2023-11-12T18:53:22Z</time>
      </trkpt>
      <trkpt lat="44.34818" lon="1.24815">
        <ele>270</ele>
        <time>2023-11-12T18:53:38Z</time>
      </trkpt>
      <trkpt lat="44.3483" lon="1.24806">
        <ele>270</ele>
        <time>2023-11-12T18:53:57Z</time>
      </trkpt>
      <trkpt lat="44.34847" lon="1.2479">
        <ele>268</ele>
        <time>2023-11-12T18:54:24Z</time>
      </trkpt>
      <trkpt lat="44.34865" lon="1.24778">
        <ele>267</ele>
        <time>2023-11-12T18:54:51Z</time>
      </trkpt>
      <trkpt lat="44.34881" lon="1.24759">
        <ele>266</ele>
        <time>2023-11-12T18:55:19Z</time>
      </trkpt>
      <trkpt lat="44.34896" lon="1.24743">
        <ele>265</ele>
        <time>2023-11-12T18:55:44Z</time>
      </trkpt>
      <trkpt lat="44.34917" lon="1.24721">
        <ele>263</ele>
        <time>2023-11-12T18:56:19Z</time>
      </trkpt>
      <trkpt lat="44.3494" lon="1.24701">
        <ele>262</ele>
        <time>2023-11-12T18:56:55Z</time>
      </trkpt>
      <trkpt lat="44.34959" lon="1.24683">
        <ele>261</ele>
        <time>2023-11-12T18:57:26Z</time>
      </trkpt>
      <trkpt lat="44.34982" lon="1.24673">
        <ele>261</ele>
        <time>2023-11-12T18:57:58Z</time>
      </trkpt>
      <trkpt lat="44.35002" lon="1.24673">
        <ele>261</ele>
        <time>2023-11-12T18:58:24Z</time>
      </trkpt>
      <trkpt lat="44.35015" lon="1.24671">
        <ele>260</ele>
        <time>2023-11-12T18:58:42Z</time>
      </trkpt>
      <trkpt lat="44.35026" lon="1.24665">
        <ele>260</ele>
        <time>2023-11-12T18:58:58Z</time>
      </trkpt>
      <trkpt lat="44.35028" lon="1.24637">
        <ele>260</ele>
        <time>2023-11-12T18:59:24Z</time>
      </trkpt>
      <trkpt lat="44.35029" lon="1.24593">
        <ele>261</ele>
        <time>2023-11-12T19:00:06Z</time>
      </trkpt>
      <trkpt lat="44.35032" lon="1.24555">
        <ele>261</ele>
        <time>2023-11-12T19:00:43Z</time>
      </trkpt>
      <trkpt lat="44.35032" lon="1.24538">
        <ele>261</ele>
        <time>2023-11-12T19:00:59Z</time>
      </trkpt>
      <trkpt lat="44.35032" lon="1.24497">
        <ele>261</ele>
        <time>2023-11-12T19:01:38Z</time>
      </trkpt>
      <trkpt lat="44.35031" lon="1.24466">
        <ele>260</ele>
        <time>2023-11-12T19:02:08Z</time>
      </trkpt>
      <trkpt lat="44.35038" lon="1.24434">
        <ele>259</ele>
        <time>2023-11-12T19:02:40Z</time>
      </trkpt>
      <trkpt lat="44.3505" lon="1.24409">
        <ele>259</ele>
        <time>2023-11-12T19:03:09Z</time>
      </trkpt>
      <trkpt lat="44.35064" lon="1.2439">
        <ele>259</ele>
        <time>2023-11-12T19:03:35Z</time>
      </trkpt>
      <trkpt lat="44.35076" lon="1.24378">
        <ele>260</ele>
        <time>2023-11-12T19:03:54Z</time>
      </trkpt>
      <trkpt lat="44.35092" lon="1.24359">
        <ele>259</ele>
        <time>2023-11-12T19:04:22Z</time>
      </trkpt>
      <trkpt lat="44.35111" lon="1.24336">
        <ele>258</ele>
        <time>2023-11-12T19:04:56Z</time>
      </trkpt>
      <trkpt lat="44.35127" lon="1.24313">
        <ele>257</ele>
        <time>2023-11-12T19:05:26Z</time>
      </trkpt>
      <trkpt lat="44.35139" lon="1.2429">
        <ele>257</ele>
        <time>2023-11-12T19:05:54Z</time>
      </trkpt>
      <trkpt lat="44.35152" lon="1.24261">
        <ele>258</ele>
        <time>2023-11-12T19:06:26Z</time>
      </trkpt>
      <trkpt lat="44.35163" lon="1.24231">
        <ele>259</ele>
        <time>2023-11-12T19:06:58Z</time>
      </trkpt>
      <trkpt lat="44.35177" lon="1.24208">
        <ele>258</ele>
        <time>2023-11-12T19:07:27Z</time>
      </trkpt>
      <trkpt lat="44.35191" lon="1.24184">
        <ele>257</ele>
        <time>2023-11-12T19:07:57Z</time>
      </trkpt>
      <trkpt lat="44.35204" lon="1.24157">
        <ele>256</ele>
        <time>2023-11-12T19:08:28Z</time>
      </trkpt>
      <trkpt lat="44.35217" lon="1.24127">
        <ele>255</ele>
        <time>2023-11-12T19:09:01Z</time>
      </trkpt>
      <trkpt lat="44.35217" lon="1.2412">
        <ele>254</ele>
        <time>2023-11-12T19:09:08Z</time>
      </trkpt>
      <trkpt lat="44.35218" lon="1.2412">
        <ele>254</ele>
        <time>2023-11-12T19:09:09Z</time>
      </trkpt>
      <trkpt lat="44.35228" lon="1.24108">
        <ele>255</ele>
        <time>2023-11-12T19:09:27Z</time>
      </trkpt>
      <trkpt lat="44.35244" lon="1.24113">
        <ele>258</ele>
        <time>2023-11-12T19:09:49Z</time>
      </trkpt>
      <trkpt lat="44.35252" lon="1.24114">
        <ele>259</ele>
        <time>2023-11-12T19:10:00Z</time>
      </trkpt>
      <trkpt lat="44.35263" lon="1.24125">
        <ele>258</ele>
        <time>2023-11-12T19:10:18Z</time>
      </trkpt>
      <trkpt lat="44.35275" lon="1.24132">
        <ele>257</ele>
        <time>2023-11-12T19:10:35Z</time>
      </trkpt>
      <trkpt lat="44.35289" lon="1.24143">
        <ele>256</ele>
        <time>2023-11-12T19:10:56Z</time>
      </trkpt>
      <trkpt lat="44.35305" lon="1.24153">
        <ele>255</ele>
        <time>2023-11-12T19:11:20Z</time>
      </trkpt>
      <trkpt lat="44.35312" lon="1.24152">
        <ele>254</ele>
        <time>2023-11-12T19:11:29Z</time>
      </trkpt>
      <trkpt lat="44.35313" lon="1.24134">
        <ele>253</ele>
        <time>2023-11-12T19:11:46Z</time>
      </trkpt>
      <trkpt lat="44.35313" lon="1.24116">
        <ele>251</ele>
        <time>2023-11-12T19:12:04Z</time>
      </trkpt>
      <trkpt lat="44.35321" lon="1.24096">
        <ele>249</ele>
        <time>2023-11-12T19:12:25Z</time>
      </trkpt>
      <trkpt lat="44.3533" lon="1.24086">
        <ele>247</ele>
        <time>2023-11-12T19:12:41Z</time>
      </trkpt>
      <trkpt lat="44.35334" lon="1.24076">
        <ele>245</ele>
        <time>2023-11-12T19:12:52Z</time>
      </trkpt>
      <trkpt lat="44.35342" lon="1.24064">
        <ele>242</ele>
        <time>2023-11-12T19:13:07Z</time>
      </trkpt>
      <trkpt lat="44.35349" lon="1.24054">
        <ele>239</ele>
        <time>2023-11-12T19:13:21Z</time>
      </trkpt>
      <trkpt lat="44.35355" lon="1.24039">
        <ele>235</ele>
        <time>2023-11-12T19:13:37Z</time>
      </trkpt>
      <trkpt lat="44.35358" lon="1.24026">
        <ele>233</ele>
        <time>2023-11-12T19:13:50Z</time>
      </trkpt>
      <trkpt lat="44.35359" lon="1.24009">
        <ele>232</ele>
        <time>2023-11-12T19:14:06Z</time>
      </trkpt>
      <trkpt lat="44.35361" lon="1.23996">
        <ele>231</ele>
        <time>2023-11-12T19:14:19Z</time>
      </trkpt>
      <trkpt lat="44.35368" lon="1.23997">
        <ele>228</ele>
        <time>2023-11-12T19:14:28Z</time>
      </trkpt>
      <trkpt lat="44.35373" lon="1.23994">
        <ele>226</ele>
        <time>2023-11-12T19:14:36Z</time>
      </trkpt>
      <trkpt lat="44.3538" lon="1.23988">
        <ele>223</ele>
        <time>2023-11-12T19:14:47Z</time>
      </trkpt>
      <trkpt lat="44.35399" lon="1.23976">
        <ele>216</ele>
        <time>2023-11-12T19:15:15Z</time>
      </trkpt>
      <trkpt lat="44.35409" lon="1.23958">
        <ele>212</ele>
        <time>2023-11-12T19:15:36Z</time>
      </trkpt>
      <trkpt lat="44.35419" lon="1.23944">
        <ele>209</ele>
        <time>2023-11-12T19:15:55Z</time>
      </trkpt>
      <trkpt lat="44.35447" lon="1.23937">
        <ele>202</ele>
        <time>2023-11-12T19:16:33Z</time>
      </trkpt>
      <trkpt lat="44.35449" lon="1.23933">
        <ele>201</ele>
        <time>2023-11-12T19:16:38Z</time>
      </trkpt>
      <trkpt lat="44.35448" lon="1.23909">
        <ele>201</ele>
        <time>2023-11-12T19:17:01Z</time>
      </trkpt>
      <trkpt lat="44.35446" lon="1.23881">
        <ele>200</ele>
        <time>2023-11-12T19:17:28Z</time>
      </trkpt>
      <trkpt lat="44.35442" lon="1.23871">
        <ele>200</ele>
        <time>2023-11-12T19:17:38Z</time>
      </trkpt>
      <trkpt lat="44.35433" lon="1.23863">
        <ele>202</ele>
        <time>2023-11-12T19:17:53Z</time>
      </trkpt>
      <trkpt lat="44.35425" lon="1.23841">
        <ele>202</ele>
        <time>2023-11-12T19:18:16Z</time>
      </trkpt>
      <trkpt lat="44.35415" lon="1.23819">
        <ele>202</ele>
        <time>2023-11-12T19:18:41Z</time>
      </trkpt>
      <trkpt lat="44.35403" lon="1.23803">
        <ele>204</ele>
        <time>2023-11-12T19:19:03Z</time>
      </trkpt>
      <trkpt lat="44.35393" lon="1.23784">
        <ele>204</ele>
        <time>2023-11-12T19:19:26Z</time>
      </trkpt>
      <trkpt lat="44.35382" lon="1.23767">
        <ele>204</ele>
        <time>2023-11-12T19:19:48Z</time>
      </trkpt>
      <trkpt lat="44.35372" lon="1.23753">
        <ele>204</ele>
        <time>2023-11-12T19:20:07Z</time>
      </trkpt>
      <trkpt lat="44.35367" lon="1.23742">
        <ele>204</ele>
        <time>2023-11-12T19:20:19Z</time>
      </trkpt>
      <trkpt lat="44.35356" lon="1.23719">
        <ele>203</ele>
        <time>2023-11-12T19:20:45Z</time>
      </trkpt>
      <trkpt lat="44.35343" lon="1.23699">
        <ele>203</ele>
        <time>2023-11-12T19:21:11Z</time>
      </trkpt>
      <trkpt lat="44.35332" lon="1.23685">
        <ele>202</ele>
        <time>2023-11-12T19:21:31Z</time>
      </trkpt>
      <trkpt lat="44.35315" lon="1.23654">
        <ele>200</ele>
        <time>2023-11-12T19:22:08Z</time>
      </trkpt>
      <trkpt lat="44.35305" lon="1.23636">
        <ele>199</ele>
        <time>2023-11-12T19:22:30Z</time>
      </trkpt>
      <trkpt lat="44.35298" lon="1.23631">
        <ele>199</ele>
        <time>2023-11-12T19:22:41Z</time>
      </trkpt>
      <trkpt lat="44.35274" lon="1.23621">
        <ele>200</ele>
        <time>2023-11-12T19:23:14Z</time>
      </trkpt>
      <trkpt lat="44.35257" lon="1.23614">
        <ele>200</ele>
        <time>2023-11-12T19:23:38Z</time>
      </trkpt>
      <trkpt lat="44.35236" lon="1.23606">
        <ele>199</ele>
        <time>2023-11-12T19:24:07Z</time>
      </trkpt>
      <trkpt lat="44.35229" lon="1.236">
        <ele>198</ele>
        <time>2023-11-12T19:24:18Z</time>
      </trkpt>
      <trkpt lat="44.35219" lon="1.23613">
        <ele>198</ele>
        <time>2023-11-12T19:24:36Z</time>
      </trkpt>
      <trkpt lat="44.35215" lon="1.23603">
        <ele>197</ele>
        <time>2023-11-12T19:24:47Z</time>
      </trkpt>
      <trkpt lat="44.35207" lon="1.23591">
        <ele>196</ele>
        <time>2023-11-12T19:25:02Z</time>
      </trkpt>
      <trkpt lat="44.35199" lon="1.23582">
        <ele>195</ele>
        <time>2023-11-12T19:25:16Z</time>
      </trkpt>
      <trkpt lat="44.35185" lon="1.2357">
        <ele>192</ele>
        <time>2023-11-12T19:25:38Z</time>
      </trkpt>
      <trkpt lat="44.35163" lon="1.23559">
        <ele>189</ele>
        <time>2023-11-12T19:26:09Z</time>
      </trkpt>
      <trkpt lat="44.35162" lon="1.23559">
        <ele>189</ele>
        <time>2023-11-12T19:26:11Z</time>
      </trkpt>
      <trkpt lat="44.3515" lon="1.23556">
        <ele>189</ele>
        <time>2023-11-12T19:26:27Z</time>
      </trkpt>
      <trkpt lat="44.35117" lon="1.23544">
        <ele>187</ele>
        <time>2023-11-12T19:27:12Z</time>
      </trkpt>
      <trkpt lat="44.35087" lon="1.23551">
        <ele>186</ele>
        <time>2023-11-12T19:27:53Z</time>
      </trkpt>
      <trkpt lat="44.35065" lon="1.23546">
        <ele>187</ele>
        <time>2023-11-12T19:28:23Z</time>
      </trkpt>
      <trkpt lat="44.35044" lon="1.2354">
        <ele>189</ele>
        <time>2023-11-12T19:28:51Z</time>
      </trkpt>
      <trkpt lat="44.35011" lon="1.23531">
        <ele>192</ele>
        <time>2023-11-12T19:29:36Z</time>
      </trkpt>
      <trkpt lat="44.34992" lon="1.23523">
        <ele>194</ele>
        <time>2023-11-12T19:30:03Z</time>
      </trkpt>
      <trkpt lat="44.34985" lon="1.23518">
        <ele>195</ele>
        <time>2023-11-12T19:30:13Z</time>
      </trkpt>
      <trkpt lat="44.34977" lon="1.23516">
        <ele>196</ele>
        <time>2023-11-12T19:30:24Z</time>
      </trkpt>
      <trkpt lat="44.34957" lon="1.23506">
        <ele>198</ele>
        <time>2023-11-12T19:30:52Z</time>
      </trkpt>
      <trkpt lat="44.34956" lon="1.23505">
        <ele>198</ele>
        <time>2023-11-12T19:30:54Z</time>
      </trkpt>
      <trkpt lat="44.34943" lon="1.235">
        <ele>200</ele>
        <time>2023-11-12T19:31:12Z</time>
      </trkpt>
      <trkpt lat="44.34921" lon="1.2349">
        <ele>204</ele>
        <time>2023-11-12T19:31:43Z</time>
      </trkpt>
      <trkpt lat="44.3487" lon="1.23468">
        <ele>212</ele>
        <time>2023-11-12T19:32:54Z</time>
      </trkpt>
      <trkpt lat="44.34851" lon="1.23458">
        <ele>216</ele>
        <time>2023-11-12T19:33:21Z</time>
      </trkpt>
      <trkpt lat="44.34838" lon="1.23448">
        <ele>220</ele>
        <time>2023-11-12T19:33:41Z</time>
      </trkpt>
      <trkpt lat="44.34819" lon="1.23439">
        <ele>221</ele>
        <time>2023-11-12T19:34:08Z</time>
      </trkpt>
      <trkpt lat="44.34805" lon="1.23432">
        <ele>222</ele>
        <time>2023-11-12T19:34:27Z</time>
      </trkpt>
      <trkpt lat="44.34798" lon="1.23428">
        <ele>222</ele>
        <time>2023-11-12T19:34:38Z</time>
      </trkpt>
      <trkpt lat="44.34776" lon="1.23415">
        <ele>224</ele>
        <time>2023-11-12T19:35:09Z</time>
      </trkpt>
      <trkpt lat="44.34763" lon="1.23406">
        <ele>225</ele>
        <time>2023-11-12T19:35:29Z</time>
      </trkpt>
      <trkpt lat="44.34749" lon="1.23395">
        <ele>227</ele>
        <time>2023-11-12T19:35:50Z</time>
      </trkpt>
      <trkpt lat="44.34733" lon="1.23389">
        <ele>228</ele>
        <time>2023-11-12T19:36:12Z</time>
      </trkpt>
      <trkpt lat="44.34716" lon="1.23379">
        <ele>230</ele>
        <time>2023-11-12T19:36:37Z</time>
      </trkpt>
      <trkpt lat="44.34699" lon="1.23368">
        <ele>233</ele>
        <time>2023-11-12T19:37:02Z</time>
      </trkpt>
      <trkpt lat="44.34683" lon="1.23359">
        <ele>235</ele>
        <time>2023-11-12T19:37:25Z</time>
      </trkpt>
      <trkpt lat="44.34666" lon="1.23354">
        <ele>237</ele>
        <time>2023-11-12T19:37:48Z</time>
      </trkpt>
      <trkpt lat="44.34648" lon="1.23349">
        <ele>239</ele>
        <time>2023-11-12T19:38:13Z</time>
      </trkpt>
      <trkpt lat="44.34631" lon="1.23347">
        <ele>240</ele>
        <time>2023-11-12T19:38:35Z</time>
      </trkpt>
      <trkpt lat="44.34614" lon="1.23334">
        <ele>244</ele>
        <time>2023-11-12T19:39:01Z</time>
      </trkpt>
      <trkpt lat="44.34601" lon="1.23323">
        <ele>246</ele>
        <time>2023-11-12T19:39:22Z</time>
      </trkpt>
      <trkpt lat="44.34569" lon="1.23313">
        <ele>249</ele>
        <time>2023-11-12T19:40:05Z</time>
      </trkpt>
      <trkpt lat="44.34551" lon="1.23316">
        <ele>250</ele>
        <time>2023-11-12T19:40:29Z</time>
      </trkpt>
      <trkpt lat="44.34532" lon="1.23324">
        <ele>251</ele>
        <time>2023-11-12T19:40:56Z</time>
      </trkpt>
      <trkpt lat="44.34487" lon="1.23333">
        <ele>255</ele>
        <time>2023-11-12T19:41:57Z</time>
      </trkpt>
      <trkpt lat="44.34488" lon="1.23319">
        <ele>256</ele>
        <time>2023-11-12T19:42:10Z</time>
      </trkpt>
      <trkpt lat="44.34513" lon="1.23312">
        <ele>254</ele>
        <time>2023-11-12T19:42:44Z</time>
      </trkpt>
      <trkpt lat="44.34525" lon="1.23311">
        <ele>253</ele>
        <time>2023-11-12T19:43:00Z</time>
      </trkpt>
      <trkpt lat="44.34545" lon="1.23302">
        <ele>252</ele>
        <time>2023-11-12T19:43:28Z</time>
      </trkpt>
      <trkpt lat="44.34554" lon="1.23299">
        <ele>252</ele>
        <time>2023-11-12T19:43:41Z</time>
      </trkpt>
      <trkpt lat="44.34563" lon="1.23296">
        <ele>251</ele>
        <time>2023-11-12T19:43:53Z</time>
      </trkpt>
      <trkpt lat="44.34582" lon="1.23291">
        <ele>250</ele>
        <time>2023-11-12T19:44:19Z</time>
      </trkpt>
      <trkpt lat="44.34585" lon="1.23291">
        <ele>250</ele>
        <time>2023-11-12T19:44:23Z</time>
      </trkpt>
      <trkpt lat="44.34605" lon="1.23284">
        <ele>250</ele>
        <time>2023-11-12T19:44:50Z</time>
      </trkpt>
      <trkpt lat="44.34619" lon="1.23282">
        <ele>250</ele>
        <time>2023-11-12T19:45:09Z</time>
      </trkpt>
      <trkpt lat="44.34619" lon="1.23282">
        <ele>250</ele>
        <time>2023-11-12T19:45:09Z</time>
      </trkpt>
      <trkpt lat="44.34621" lon="1.2328">
        <ele>250</ele>
        <time>2023-11-12T19:45:12Z</time>
      </trkpt>
      <trkpt lat="44.34626" lon="1.2328">
        <ele>250</ele>
        <time>2023-11-12T19:45:19Z</time>
      </trkpt>
      <trkpt lat="44.34633" lon="1.23276">
        <ele>250</ele>
        <time>2023-11-12T19:45:29Z</time>
      </trkpt>
      <trkpt lat="44.3464" lon="1.23271">
        <ele>250</ele>
        <time>2023-11-12T19:45:39Z</time>
      </trkpt>
      <trkpt lat="44.34642" lon="1.2326">
        <ele>251</ele>
        <time>2023-11-12T19:45:50Z</time>
      </trkpt>
      <trkpt lat="44.34629" lon="1.23251">
        <ele>253</ele>
        <time>2023-11-12T19:46:10Z</time>
      </trkpt>
      <trkpt lat="44.34618" lon="1.23237">
        <ele>254</ele>
        <time>2023-11-12T19:46:30Z</time>
      </trkpt>
      <trkpt lat="44.34604" lon="1.23225">
        <ele>255</ele>
        <time>2023-11-12T19:46:51Z</time>
      </trkpt>
      <trkpt lat="44.34582" lon="1.23209">
        <ele>257</ele>
        <time>2023-11-12T19:47:25Z</time>
      </trkpt>
      <trkpt lat="44.34572" lon="1.23203">
        <ele>258</ele>
        <time>2023-11-12T19:47:39Z</time>
      </trkpt>
      <trkpt lat="44.34566" lon="1.23187">
        <ele>259</ele>
        <time>2023-11-12T19:47:56Z</time>
      </trkpt>
      <trkpt lat="44.34579" lon="1.2317">
        <ele>260</ele>
        <time>2023-11-12T19:48:20Z</time>
      </trkpt>
      <trkpt lat="44.34592" lon="1.23146">
        <ele>258</ele>
        <time>2023-11-12T19:48:49Z</time>
      </trkpt>
      <trkpt lat="44.34599" lon="1.23127">
        <ele>257</ele>
        <time>2023-11-12T19:49:09Z</time>
      </trkpt>
      <trkpt lat="44.34616" lon="1.23109">
        <ele>254</ele>
        <time>2023-11-12T19:49:38Z</time>
      </trkpt>
      <trkpt lat="44.3462" lon="1.23101">
        <ele>253</ele>
        <time>2023-11-12T19:49:47Z</time>
      </trkpt>
      <trkpt lat="44.34631" lon="1.23079">
        <ele>252</ele>
        <time>2023-11-12T19:50:13Z</time>
      </trkpt>
      <trkpt lat="44.34634" lon="1.23063">
        <ele>251</ele>
        <time>2023-11-12T19:50:28Z</time>
      </trkpt>
      <trkpt lat="44.34638" lon="1.23057">
        <ele>250</ele>
        <time>2023-11-12T19:50:36Z</time>
      </trkpt>
      <trkpt lat="44.34643" lon="1.23046">
        <ele>249</ele>
        <time>2023-11-12T19:50:49Z</time>
      </trkpt>
      <trkpt lat="44.34645" lon="1.23038">
        <ele>249</ele>
        <time>2023-11-12T19:50:57Z</time>
      </trkpt>
      <trkpt lat="44.34643" lon="1.2303">
        <ele>249</ele>
        <time>2023-11-12T19:51:05Z</time>
      </trkpt>
      <trkpt lat="44.3462" lon="1.23029">
        <ele>249</ele>
        <time>2023-11-12T19:51:35Z</time>
      </trkpt>
      <trkpt lat="44.34602" lon="1.2303">
        <ele>250</ele>
        <time>2023-11-12T19:52:00Z</time>
      </trkpt>
      <trkpt lat="44.34585" lon="1.23033">
        <ele>250</ele>
        <time>2023-11-12T19:52:22Z</time>
      </trkpt>
      <trkpt lat="44.34574" lon="1.23033">
        <ele>251</ele>
        <time>2023-11-12T19:52:37Z</time>
      </trkpt>
      <trkpt lat="44.34566" lon="1.23028">
        <ele>250</ele>
        <time>2023-11-12T19:52:49Z</time>
      </trkpt>
      <trkpt lat="44.34571" lon="1.23024">
        <ele>250</ele>
        <time>2023-11-12T19:52:56Z</time>
      </trkpt>
      <trkpt lat="44.34575" lon="1.23019">
        <ele>249</ele>
        <time>2023-11-12T19:53:04Z</time>
      </trkpt>
      <trkpt lat="44.34581" lon="1.23016">
        <ele>248</ele>
        <time>2023-11-12T19:53:12Z</time>
      </trkpt>
      <trkpt lat="44.346" lon="1.2299">
        <ele>244</ele>
        <time>2023-11-12T19:53:48Z</time>
      </trkpt>
      <trkpt lat="44.34604" lon="1.22986">
        <ele>244</ele>
        <time>2023-11-12T19:53:54Z</time>
      </trkpt>
      <trkpt lat="44.34612" lon="1.22969">
        <ele>241</ele>
        <time>2023-11-12T19:54:14Z</time>
      </trkpt>
      <trkpt lat="44.34623" lon="1.22952">
        <ele>239</ele>
        <time>2023-11-12T19:54:35Z</time>
      </trkpt>
      <trkpt lat="44.34627" lon="1.22944">
        <ele>238</ele>
        <time>2023-11-12T19:54:45Z</time>
      </trkpt>
      <trkpt lat="44.34631" lon="1.22929">
        <ele>236</ele>
        <time>2023-11-12T19:55:00Z</time>
      </trkpt>
      <trkpt lat="44.34638" lon="1.22913">
        <ele>234</ele>
        <time>2023-11-12T19:55:18Z</time>
      </trkpt>
      <trkpt lat="44.34647" lon="1.22896">
        <ele>231</ele>
        <time>2023-11-12T19:55:38Z</time>
      </trkpt>
      <trkpt lat="44.34659" lon="1.22876">
        <ele>228</ele>
        <time>2023-11-12T19:56:03Z</time>
      </trkpt>
      <trkpt lat="44.34669" lon="1.2286">
        <ele>225</ele>
        <time>2023-11-12T19:56:23Z</time>
      </trkpt>
      <trkpt lat="44.34684" lon="1.2285">
        <ele>224</ele>
        <time>2023-11-12T19:56:46Z</time>
      </trkpt>
      <trkpt lat="44.34688" lon="1.22846">
        <ele>223</ele>
        <time>2023-11-12T19:56:52Z</time>
      </trkpt>
      <trkpt lat="44.34693" lon="1.22833">
        <ele>221</ele>
        <time>2023-11-12T19:57:06Z</time>
      </trkpt>
      <trkpt lat="44.34685" lon="1.22825">
        <ele>218</ele>
        <time>2023-11-12T19:57:19Z</time>
      </trkpt>
      <trkpt lat="44.34687" lon="1.22823">
        <ele>218</ele>
        <time>2023-11-12T19:57:23Z</time>
      </trkpt>
      <trkpt lat="44.34701" lon="1.22802">
        <ele>215</ele>
        <time>2023-11-12T19:57:50Z</time>
      </trkpt>
      <trkpt lat="44.3471" lon="1.22796">
        <ele>214</ele>
        <time>2023-11-12T19:58:03Z</time>
      </trkpt>
      <trkpt lat="44.34729" lon="1.22782">
        <ele>212</ele>
        <time>2023-11-12T19:58:32Z</time>
      </trkpt>
      <trkpt lat="44.3473" lon="1.2278">
        <ele>212</ele>
        <time>2023-11-12T19:58:34Z</time>
      </trkpt>
      <trkpt lat="44.34736" lon="1.22766">
        <ele>209</ele>
        <time>2023-11-12T19:58:50Z</time>
      </trkpt>
      <trkpt lat="44.34745" lon="1.2275">
        <ele>205</ele>
        <time>2023-11-12T19:59:09Z</time>
      </trkpt>
      <trkpt lat="44.34751" lon="1.22739">
        <ele>204</ele>
        <time>2023-11-12T19:59:22Z</time>
      </trkpt>
      <trkpt lat="44.34754" lon="1.22731">
        <ele>203</ele>
        <time>2023-11-12T19:59:31Z</time>
      </trkpt>
      <trkpt lat="44.34769" lon="1.22696">
        <ele>201</ele>
        <time>2023-11-12T20:00:10Z</time>
      </trkpt>
      <trkpt lat="44.34772" lon="1.22682">
        <ele>199</ele>
        <time>2023-11-12T20:00:24Z</time>
      </trkpt>
      <trkpt lat="44.34772" lon="1.22677">
        <ele>199</ele>
        <time>2023-11-12T20:00:29Z</time>
      </trkpt>
      <trkpt lat="44.34777" lon="1.22653">
        <ele>197</ele>
        <time>2023-11-12T20:00:53Z</time>
      </trkpt>
      <trkpt lat="44.34781" lon="1.22624">
        <ele>195</ele>
        <time>2023-11-12T20:01:21Z</time>
      </trkpt>
      <trkpt lat="44.34786" lon="1.226">
        <ele>193</ele>
        <time>2023-11-12T20:01:45Z</time>
      </trkpt>
      <trkpt lat="44.3479" lon="1.22575">
        <ele>191</ele>
        <time>2023-11-12T20:02:09Z</time>
      </trkpt>
      <trkpt lat="44.34803" lon="1.22549">
        <ele>190</ele>
        <time>2023-11-12T20:02:39Z</time>
      </trkpt>
      <trkpt lat="44.34834" lon="1.22532">
        <ele>187</ele>
        <time>2023-11-12T20:03:24Z</time>
      </trkpt>
      <trkpt lat="44.3487" lon="1.22516">
        <ele>185</ele>
        <time>2023-11-12T20:04:14Z</time>
      </trkpt>
      <trkpt lat="44.34897" lon="1.22506">
        <ele>183</ele>
        <time>2023-11-12T20:04:51Z</time>
      </trkpt>
      <trkpt lat="44.34912" lon="1.22496">
        <ele>182</ele>
        <time>2023-11-12T20:05:14Z</time>
      </trkpt>
      <trkpt lat="44.3492" lon="1.22492">
        <ele>182</ele>
        <time>2023-11-12T20:05:25Z</time>
      </trkpt>
      <trkpt lat="44.34941" lon="1.2248">
        <ele>181</ele>
        <time>2023-11-12T20:05:55Z</time>
      </trkpt>
      <trkpt lat="44.34942" lon="1.2248">
        <ele>181</ele>
        <time>2023-11-12T20:05:57Z</time>
      </trkpt>
      <trkpt lat="44.34961" lon="1.22459">
        <ele>179</ele>
        <time>2023-11-12T20:06:29Z</time>
      </trkpt>
      <trkpt lat="44.34976" lon="1.22439">
        <ele>177</ele>
        <time>2023-11-12T20:06:57Z</time>
      </trkpt>
      <trkpt lat="44.34991" lon="1.22425">
        <ele>175</ele>
        <time>2023-11-12T20:07:21Z</time>
      </trkpt>
      <trkpt lat="44.3501" lon="1.22408">
        <ele>174</ele>
        <time>2023-11-12T20:07:51Z</time>
      </trkpt>
      <trkpt lat="44.35032" lon="1.2239">
        <ele>173</ele>
        <time>2023-11-12T20:08:25Z</time>
      </trkpt>
      <trkpt lat="44.3505" lon="1.2238">
        <ele>172</ele>
        <time>2023-11-12T20:08:51Z</time>
      </trkpt>
      <trkpt lat="44.35067" lon="1.22366">
        <ele>171</ele>
        <time>2023-11-12T20:09:17Z</time>
      </trkpt>
      <trkpt lat="44.35088" lon="1.22356">
        <ele>170</ele>
        <time>2023-11-12T20:09:47Z</time>
      </trkpt>
      <trkpt lat="44.35111" lon="1.2233">
        <ele>167</ele>
        <time>2023-11-12T20:10:26Z</time>
      </trkpt>
      <trkpt lat="44.3512" lon="1.22331">
        <ele>167</ele>
        <time>2023-11-12T20:10:38Z</time>
      </trkpt>
      <trkpt lat="44.35126" lon="1.22333">
        <ele>167</ele>
        <time>2023-11-12T20:10:46Z</time>
      </trkpt>
      <trkpt lat="44.35149" lon="1.22344">
        <ele>166</ele>
        <time>2023-11-12T20:11:19Z</time>
      </trkpt>
      <trkpt lat="44.35171" lon="1.22357">
        <ele>166</ele>
        <time>2023-11-12T20:11:51Z</time>
      </trkpt>
      <trkpt lat="44.3519" lon="1.22368">
        <ele>165</ele>
        <time>2023-11-12T20:12:18Z</time>
      </trkpt>
      <trkpt lat="44.35212" lon="1.2238">
        <ele>165</ele>
        <time>2023-11-12T20:12:50Z</time>
      </trkpt>
      <trkpt lat="44.35233" lon="1.22391">
        <ele>164</ele>
        <time>2023-11-12T20:13:19Z</time>
      </trkpt>
      <trkpt lat="44.35252" lon="1.22402">
        <ele>163</ele>
        <time>2023-11-12T20:13:47Z</time>
      </trkpt>
      <trkpt lat="44.35269" lon="1.2242">
        <ele>163</ele>
        <time>2023-11-12T20:14:15Z</time>
      </trkpt>
      <trkpt lat="44.35281" lon="1.22445">
        <ele>164</ele>
        <time>2023-11-12T20:14:44Z</time>
      </trkpt>
      <trkpt lat="44.35294" lon="1.22466">
        <ele>165</ele>
        <time>2023-11-12T20:15:11Z</time>
      </trkpt>
      <trkpt lat="44.35304" lon="1.22466">
        <ele>164</ele>
        <time>2023-11-12T20:15:24Z</time>
      </trkpt>
      <trkpt lat="44.35311" lon="1.2248">
        <ele>164</ele>
        <time>2023-11-12T20:15:40Z</time>
      </trkpt>
      <trkpt lat="44.35335" lon="1.22517">
        <ele>164</ele>
        <time>2023-11-12T20:16:28Z</time>
      </trkpt>
      <trkpt lat="44.35346" lon="1.2254">
        <ele>165</ele>
        <time>2023-11-12T20:16:54Z</time>
      </trkpt>
      <trkpt lat="44.35346" lon="1.22542">
        <ele>165</ele>
        <time>2023-11-12T20:16:56Z</time>
      </trkpt>
      <trkpt lat="44.35356" lon="1.22569">
        <ele>165</ele>
        <time>2023-11-12T20:17:25Z</time>
      </trkpt>
      <trkpt lat="44.35366" lon="1.22592">
        <ele>166</ele>
        <time>2023-11-12T20:17:51Z</time>
      </trkpt>
      <trkpt lat="44.35375" lon="1.22616">
        <ele>167</ele>
        <time>2023-11-12T20:18:17Z</time>
      </trkpt>
      <trkpt lat="44.35386" lon="1.22643">
        <ele>168</ele>
        <time>2023-11-12T20:18:46Z</time>
      </trkpt>
      <trkpt lat="44.35397" lon="1.22666">
        <ele>168</ele>
        <time>2023-11-12T20:19:13Z</time>
      </trkpt>
      <trkpt lat="44.35401" lon="1.22677">
        <ele>168</ele>
        <time>2023-11-12T20:19:25Z</time>
      </trkpt>
      <trkpt lat="44.35405" lon="1.22686">
        <ele>168</ele>
        <time>2023-11-12T20:19:35Z</time>
      </trkpt>
      <trkpt lat="44.35416" lon="1.22707">
        <ele>167</ele>
        <time>2023-11-12T20:20:00Z</time>
      </trkpt>
      <trkpt lat="44.35424" lon="1.22733">
        <ele>167</ele>
        <time>2023-11-12T20:20:27Z</time>
      </trkpt>
      <trkpt lat="44.35436" lon="1.22756">
        <ele>166</ele>
        <time>2023-11-12T20:20:54Z</time>
      </trkpt>
      <trkpt lat="44.35445" lon="1.22778">
        <ele>166</ele>
        <time>2023-11-12T20:21:18Z</time>
      </trkpt>
      <trkpt lat="44.35457" lon="1.22806">
        <ele>165</ele>
        <time>2023-11-12T20:21:49Z</time>
      </trkpt>
      <trkpt lat="44.35467" lon="1.2283">
        <ele>165</ele>
        <time>2023-11-12T20:22:16Z</time>
      </trkpt>
      <trkpt lat="44.35474" lon="1.22845">
        <ele>164</ele>
        <time>2023-11-12T20:22:33Z</time>
      </trkpt>
      <trkpt lat="44.35479" lon="1.22859">
        <ele>164</ele>
        <time>2023-11-12T20:22:48Z</time>
      </trkpt>
      <trkpt lat="44.35486" lon="1.22875">
        <ele>164</ele>
        <time>2023-11-12T20:23:05Z</time>
      </trkpt>
      <trkpt lat="44.35496" lon="1.22898">
        <ele>164</ele>
        <time>2023-11-12T20:23:31Z</time>
      </trkpt>
      <trkpt lat="44.35499" lon="1.22902">
        <ele>164</ele>
        <time>2023-11-12T20:23:37Z</time>
      </trkpt>
      <trkpt lat="44.35507" lon="1.22927">
        <ele>164</ele>
        <time>2023-11-12T20:24:03Z</time>
      </trkpt>
      <trkpt lat="44.35516" lon="1.22933">
        <ele>164</ele>
        <time>2023-11-12T20:24:16Z</time>
      </trkpt>
      <trkpt lat="44.3552" lon="1.22944">
        <ele>164</ele>
        <time>2023-11-12T20:24:28Z</time>
      </trkpt>
      <trkpt lat="44.35527" lon="1.22946">
        <ele>164</ele>
        <time>2023-11-12T20:24:37Z</time>
      </trkpt>
      <trkpt lat="44.3554" lon="1.22952">
        <ele>164</ele>
        <time>2023-11-12T20:24:56Z</time>
      </trkpt>
      <trkpt lat="44.3555" lon="1.22962">
        <ele>164</ele>
        <time>2023-11-12T20:25:12Z</time>
      </trkpt>
      <trkpt lat="44.35581" lon="1.22977">
        <ele>164</ele>
        <time>2023-11-12T20:25:56Z</time>
      </trkpt>
      <trkpt lat="44.35592" lon="1.22983">
        <ele>164</ele>
        <time>2023-11-12T20:26:12Z</time>
      </trkpt>
      <trkpt lat="44.3561" lon="1.22977">
        <ele>164</ele>
        <time>2023-11-12T20:26:36Z</time>
      </trkpt>
      <trkpt lat="44.35617" lon="1.22966">
        <ele>164</ele>
        <time>2023-11-12T20:26:50Z</time>
      </trkpt>
      <trkpt lat="44.35626" lon="1.22958">
        <ele>165</ele>
        <time>2023-11-12T20:27:05Z</time>
      </trkpt>
      <trkpt lat="44.35627" lon="1.22953">
        <ele>165</ele>
        <time>2023-11-12T20:27:10Z</time>
      </trkpt>
      <trkpt lat="44.35628" lon="1.22938">
        <ele>165</ele>
        <time>2023-11-12T20:27:24Z</time>
      </trkpt>
      <trkpt lat="44.3563" lon="1.2294">
        <ele>165</ele>
        <time>2023-11-12T20:27:27Z</time>
      </trkpt>
      <trkpt lat="44.3563" lon="1.2294">
        <ele>165</ele>
        <time>2023-11-12T20:27:27Z</time>
      </trkpt>
      <trkpt lat="44.3563" lon="1.22939">
        <ele>165</ele>
        <time>2023-11-12T20:27:28Z</time>
      </trkpt>
      <trkpt lat="44.3563" lon="1.22938">
        <ele>165</ele>
        <time>2023-11-12T20:27:29Z</time>
      </trkpt>
      <trkpt lat="44.35628" lon="1.22936">
        <ele>165</ele>
        <time>2023-11-12T20:27:33Z</time>
      </trkpt>
      <trkpt lat="44.35628" lon="1.22937">
        <ele>165</ele>
        <time>2023-11-12T20:27:34Z</time>
      </trkpt>
    </trkseg>
  </trk>
</gpx>